createdAt,value
2018-07-02T00:02:31.791Z,95.20
2018-07-02T00:05:05.158Z,94.90
2018-07-02T00:07:38.516Z,94.90
2018-07-02T00:10:12.913Z,94.60
2018-07-02T00:12:46.069Z,94.80
2018-07-02T00:15:19.254Z,94.70
2018-07-02T00:17:52.417Z,95.00
2018-07-02T00:20:25.481Z,95.20
2018-07-02T00:22:59.898Z,95.70
2018-07-02T00:25:32.986Z,95.20
2018-07-02T00:28:06.555Z,94.70
2018-07-02T00:30:39.737Z,94.00
2018-07-02T00:33:12.954Z,94.30
2018-07-02T00:35:46.930Z,93.60
2018-07-02T00:38:19.929Z,93.90
2018-07-02T00:40:53.134Z,93.70
2018-07-02T00:43:26.182Z,94.20
2018-07-02T00:46:00.938Z,93.90
2018-07-02T00:48:34.472Z,93.30
2018-07-02T00:51:07.574Z,92.60
2018-07-02T00:53:41.635Z,92.80
2018-07-02T00:56:14.686Z,92.90
2018-07-02T00:58:47.768Z,93.20
2018-07-02T01:01:22.033Z,93.50
2018-07-02T01:03:55.166Z,92.90
2018-07-02T01:06:28.353Z,92.70
2018-07-02T01:09:01.310Z,90.50
2018-07-02T01:11:34.491Z,90.00
2018-07-02T01:14:07.697Z,90.50
2018-07-02T01:16:40.811Z,90.70
2018-07-02T01:19:13.922Z,91.20
2018-07-02T01:21:48.667Z,91.30
2018-07-02T01:24:22.234Z,91.70
2018-07-02T01:26:56.298Z,91.20
2018-07-02T01:29:34.104Z,91.60
2018-07-02T01:32:09.079Z,91.00
2018-07-02T01:34:44.001Z,91.40
2018-07-02T01:37:18.421Z,91.30
2018-07-02T01:39:52.851Z,92.10
2018-07-02T01:42:25.924Z,91.20
2018-07-02T01:44:58.993Z,91.90
2018-07-02T01:47:31.926Z,92.00
2018-07-02T01:50:06.026Z,91.00
2018-07-02T01:52:39.177Z,90.80
2018-07-02T01:55:12.782Z,89.70
2018-07-02T01:57:46.918Z,90.10
2018-07-02T02:00:20.957Z,90.40
2018-07-02T02:02:53.947Z,90.70
2018-07-02T02:05:27.544Z,90.30
2018-07-02T02:08:01.090Z,90.50
2018-07-02T02:10:38.236Z,91.30
2018-07-02T02:13:23.224Z,91.90
2018-07-02T02:16:17.988Z,92.00
2018-07-02T02:19:12.926Z,92.20
2018-07-02T02:22:07.191Z,92.80
2018-07-02T02:25:11.495Z,93.20
2018-07-02T02:27:59.600Z,92.80
2018-07-02T02:31:19.014Z,93.20
2018-07-02T02:34:20.677Z,93.30
2018-07-02T02:37:15.643Z,94.00
2018-07-02T02:40:35.207Z,93.70
2018-07-02T02:46:59.764Z,94.10
2018-07-02T02:49:32.692Z,94.50
2018-07-02T02:52:05.946Z,94.20
2018-07-02T02:54:39.236Z,94.60
2018-07-02T02:57:12.491Z,94.90
2018-07-02T02:59:45.757Z,95.00
2018-07-02T03:02:18.738Z,95.20
2018-07-02T03:04:52.156Z,94.90
2018-07-02T03:07:27.564Z,95.20
2018-07-02T03:10:03.010Z,95.10
2018-07-02T03:12:36.206Z,95.30
2018-07-02T03:15:09.546Z,95.30
2018-07-02T03:17:42.597Z,95.60
2018-07-02T03:20:16.480Z,95.70
2018-07-02T03:22:49.586Z,95.80
2018-07-02T03:25:22.837Z,96.00
2018-07-02T03:27:56.138Z,95.80
2018-07-02T03:30:29.679Z,95.80
2018-07-02T03:33:04.262Z,96.00
2018-07-02T03:35:37.421Z,96.20
2018-07-02T03:38:10.579Z,96.00
2018-07-02T03:40:44.631Z,96.10
2018-07-02T03:43:17.806Z,96.60
2018-07-02T03:45:50.841Z,96.80
2018-07-02T03:48:23.923Z,96.60
2018-07-02T03:50:57.038Z,96.80
2018-07-02T03:53:30.048Z,96.80
2018-07-02T03:56:04.030Z,97.20
2018-07-02T03:58:39.068Z,96.60
2018-07-02T04:01:12.321Z,96.80
2018-07-02T04:03:45.250Z,96.70
2018-07-02T04:06:18.969Z,97.20
2018-07-02T04:08:52.018Z,97.50
2018-07-02T04:11:25.316Z,97.30
2018-07-02T04:13:59.594Z,97.10
2018-07-02T04:16:32.624Z,97.10
2018-07-02T04:19:10.003Z,97.20
2018-07-02T04:21:44.855Z,97.00
2018-07-02T04:24:18.983Z,97.10
2018-07-02T04:26:52.144Z,97.40
2018-07-02T04:29:25.277Z,97.50
2018-07-02T04:31:58.355Z,97.80
2018-07-02T04:34:31.448Z,97.50
2018-07-02T04:37:04.565Z,97.50
2018-07-02T04:39:37.624Z,98.50
2018-07-02T04:42:10.830Z,99.90
2018-07-02T04:44:43.887Z,98.90
2018-07-02T04:47:17.112Z,98.10
2018-07-02T04:49:50.507Z,97.70
2018-07-02T04:52:23.840Z,98.10
2018-07-02T04:54:57.134Z,98.40
2018-07-02T04:57:31.302Z,98.30
2018-07-02T05:00:04.582Z,97.90
2018-07-02T05:02:39.154Z,97.60
2018-07-02T05:05:13.308Z,97.60
2018-07-02T05:07:46.997Z,97.10
2018-07-02T05:10:20.548Z,97.90
2018-07-02T05:12:53.772Z,97.60
2018-07-02T05:15:26.923Z,97.60
2018-07-02T05:18:02.126Z,98.00
2018-07-02T05:20:35.590Z,97.80
2018-07-02T05:23:08.679Z,98.00
2018-07-02T05:25:41.712Z,97.30
2018-07-02T05:28:15.015Z,97.50
2018-07-02T05:30:48.142Z,97.50
2018-07-02T05:33:21.740Z,97.60
2018-07-02T05:35:56.522Z,97.50
2018-07-02T05:38:29.495Z,97.80
2018-07-02T05:41:02.576Z,98.10
2018-07-02T05:43:35.681Z,97.80
2018-07-02T05:46:08.880Z,97.90
2018-07-02T05:48:42.014Z,97.90
2018-07-02T05:51:15.138Z,98.20
2018-07-02T05:53:48.816Z,97.70
2018-07-02T05:56:21.845Z,97.70
2018-07-02T05:58:55.369Z,98.10
2018-07-02T06:01:28.633Z,97.60
2018-07-02T06:04:02.292Z,97.40
2018-07-02T06:06:35.555Z,97.70
2018-07-02T06:09:10.903Z,97.40
2018-07-02T06:11:44.153Z,97.30
2018-07-02T06:14:17.307Z,97.20
2018-07-02T06:16:50.348Z,97.30
2018-07-02T06:19:24.134Z,97.50
2018-07-02T06:21:57.157Z,97.70
2018-07-02T06:24:31.145Z,97.60
2018-07-02T06:27:04.767Z,97.70
2018-07-02T06:29:38.915Z,97.70
2018-07-02T06:32:11.841Z,98.10
2018-07-02T06:34:46.068Z,97.60
2018-07-02T06:37:19.249Z,97.90
2018-07-02T06:39:52.233Z,97.70
2018-07-02T06:42:25.346Z,98.10
2018-07-02T06:44:58.740Z,98.40
2018-07-02T06:47:31.786Z,98.30
2018-07-02T06:50:04.993Z,98.00
2018-07-02T06:52:38.784Z,98.10
2018-07-02T06:55:12.308Z,97.90
2018-07-02T06:57:45.300Z,97.70
2018-07-02T07:00:18.429Z,97.80
2018-07-02T07:02:51.518Z,98.00
2018-07-02T07:05:24.579Z,98.30
2018-07-02T07:07:57.733Z,98.40
2018-07-02T07:10:30.725Z,98.20
2018-07-02T07:13:03.799Z,98.50
2018-07-02T07:15:36.752Z,98.40
2018-07-02T07:18:10.775Z,98.10
2018-07-02T07:20:43.964Z,98.20
2018-07-02T07:23:16.948Z,98.00
2018-07-02T07:25:50.146Z,98.10
2018-07-02T07:28:23.306Z,98.00
2018-07-02T07:30:56.752Z,98.50
2018-07-02T07:33:29.784Z,98.60
2018-07-02T07:36:02.794Z,98.30
2018-07-02T07:38:35.828Z,98.50
2018-07-02T07:41:09.385Z,98.80
2018-07-02T07:43:42.294Z,98.80
2018-07-02T14:37:58.569Z,99.90
2018-07-02T14:40:31.611Z,99.90
2018-07-02T14:43:04.776Z,99.90
2018-07-02T14:45:37.851Z,99.90
2018-07-02T14:48:11.052Z,99.90
2018-07-02T14:50:44.097Z,99.90
2018-07-02T14:53:17.227Z,99.90
2018-07-02T14:55:50.317Z,99.90
2018-07-02T14:58:23.449Z,99.90
2018-07-02T15:00:56.514Z,99.90
2018-07-02T15:03:29.819Z,99.90
2018-07-02T15:06:02.851Z,99.90
2018-07-02T15:08:35.887Z,99.90
2018-07-02T15:11:09.107Z,99.90
2018-07-02T15:13:42.047Z,99.90
2018-07-02T15:16:15.022Z,99.90
2018-07-02T15:18:48.229Z,99.90
2018-07-02T15:21:21.336Z,99.90
2018-07-02T15:23:54.363Z,99.90
2018-07-02T15:26:27.312Z,99.90
2018-07-02T15:29:00.242Z,99.90
2018-07-02T15:31:33.182Z,99.90
2018-07-02T15:34:06.219Z,99.90
2018-07-02T15:36:39.287Z,99.90
2018-07-02T15:39:13.175Z,99.90
2018-07-02T15:41:46.257Z,99.90
2018-07-02T15:44:19.374Z,99.90
2018-07-02T15:46:52.615Z,99.90
2018-07-02T15:49:25.669Z,99.90
2018-07-02T15:51:58.723Z,99.30
2018-07-02T15:54:31.867Z,99.40
2018-07-02T15:57:04.859Z,98.90
2018-07-02T15:59:37.900Z,99.40
2018-07-02T16:02:10.894Z,99.20
2018-07-02T16:04:44.105Z,98.30
2018-07-02T16:07:17.187Z,98.30
2018-07-02T16:09:50.139Z,97.20
2018-07-02T16:12:23.145Z,97.10
2018-07-02T16:14:56.189Z,96.90
2018-07-02T16:17:29.292Z,96.70
2018-07-02T16:20:02.288Z,96.90
2018-07-02T16:22:35.408Z,97.70
2018-07-02T16:25:08.515Z,97.40
2018-07-02T16:27:41.671Z,97.10
2018-07-02T16:30:14.788Z,97.60
2018-07-02T16:32:47.876Z,96.20
2018-07-02T16:35:20.878Z,96.40
2018-07-02T16:37:54.020Z,96.70
2018-07-02T16:40:27.151Z,96.30
2018-07-02T16:43:00.206Z,97.50
2018-07-02T16:45:33.223Z,96.50
2018-07-02T16:48:06.242Z,96.10
2018-07-02T16:50:39.334Z,95.70
2018-07-02T16:53:12.311Z,96.80
2018-07-02T16:55:45.518Z,96.30
2018-07-02T16:58:18.668Z,95.90
2018-07-02T17:00:51.809Z,95.80
2018-07-02T17:03:24.748Z,95.90
2018-07-02T17:05:57.678Z,95.70
2018-07-02T17:08:30.763Z,95.90
2018-07-02T17:11:03.785Z,95.50
2018-07-02T17:13:36.908Z,94.60
2018-07-02T17:16:09.795Z,93.90
2018-07-02T17:18:42.829Z,95.80
2018-07-02T17:21:16.024Z,95.70
2018-07-02T17:23:49.057Z,94.60
2018-07-02T17:26:22.210Z,95.20
2018-07-02T17:28:55.187Z,94.00
2018-07-02T17:31:28.255Z,92.90
2018-07-02T17:34:01.240Z,93.60
2018-07-02T17:36:34.247Z,93.70
2018-07-02T17:39:09.523Z,93.20
2018-07-02T17:41:42.894Z,93.20
2018-07-02T17:44:16.066Z,92.80
2018-07-02T17:46:49.092Z,93.50
2018-07-02T17:49:22.127Z,94.00
2018-07-02T17:51:55.262Z,93.50
2018-07-02T17:54:28.377Z,93.90
2018-07-02T17:57:01.393Z,93.70
2018-07-02T17:59:34.629Z,93.90
2018-07-02T18:02:07.803Z,93.30
2018-07-02T18:04:40.902Z,93.40
2018-07-02T18:07:13.794Z,93.70
2018-07-02T18:09:46.867Z,92.50
2018-07-02T18:12:19.990Z,92.60
2018-07-02T18:14:52.966Z,92.60
2018-07-02T18:17:26.092Z,92.30
2018-07-02T18:19:58.971Z,91.90
2018-07-02T18:22:31.937Z,91.80
2018-07-02T18:25:05.137Z,92.00
2018-07-02T18:27:38.275Z,92.10
2018-07-02T18:30:11.432Z,92.10
2018-07-02T18:32:44.439Z,92.00
2018-07-02T18:35:17.450Z,90.80
2018-07-02T18:37:50.508Z,90.10
2018-07-02T18:40:23.986Z,90.70
2018-07-02T18:42:57.001Z,90.10
2018-07-02T18:45:30.111Z,90.90
2018-07-02T18:48:03.262Z,91.10
2018-07-02T18:50:36.414Z,90.20
2018-07-02T18:53:09.494Z,90.10
2018-07-02T18:55:42.683Z,89.40
2018-07-02T18:58:15.595Z,89.10
2018-07-02T19:00:48.526Z,90.40
2018-07-02T19:03:21.563Z,90.40
2018-07-02T19:05:54.615Z,90.70
2018-07-02T19:08:28.264Z,90.40
2018-07-02T19:11:01.370Z,91.00
2018-07-02T19:13:34.373Z,91.20
2018-07-02T19:16:07.311Z,91.00
2018-07-02T19:18:40.386Z,91.80
2018-07-02T19:21:13.429Z,90.90
2018-07-02T19:23:46.496Z,90.10
2018-07-02T19:26:19.546Z,87.60
2018-07-02T19:28:52.653Z,89.70
2018-07-02T19:31:25.708Z,90.30
2018-07-02T19:33:58.754Z,85.00
2018-07-02T19:36:32.416Z,86.80
2018-07-02T19:39:07.122Z,85.00
2018-07-02T19:41:41.001Z,85.60
2018-07-02T19:44:15.193Z,85.80
2018-07-02T19:46:49.014Z,85.60
2018-07-02T19:49:22.546Z,87.40
2018-07-02T19:51:56.283Z,87.60
2018-07-02T19:54:33.863Z,87.60
2018-07-02T19:57:07.736Z,88.20
2018-07-02T19:59:41.246Z,87.20
2018-07-02T20:02:14.376Z,90.20
2018-07-02T20:04:47.341Z,91.80
2018-07-02T20:07:20.421Z,92.60
2018-07-02T20:09:53.387Z,95.80
2018-07-02T20:12:26.456Z,96.00
2018-07-02T20:14:59.444Z,96.10
2018-07-02T20:17:32.459Z,97.30
2018-07-02T20:20:05.515Z,98.00
2018-07-02T20:22:38.811Z,99.90
2018-07-02T20:25:11.999Z,97.20
2018-07-02T20:27:45.064Z,97.30
2018-07-02T20:30:18.172Z,96.50
2018-07-02T20:32:51.206Z,97.60
2018-07-02T20:35:24.288Z,95.10
2018-07-02T20:37:57.297Z,95.50
2018-07-02T20:40:30.271Z,96.60
2018-07-02T20:43:03.303Z,97.10
2018-07-02T20:45:36.363Z,97.10
2018-07-02T20:48:09.303Z,98.30
2018-07-02T20:50:42.445Z,96.70
2018-07-02T20:53:15.402Z,96.80
2018-07-02T20:55:48.328Z,95.50
2018-07-02T20:58:21.398Z,94.20
2018-07-02T21:00:54.471Z,92.50
2018-07-02T21:03:27.587Z,94.40
2018-07-02T21:06:00.709Z,92.30
2018-07-02T21:08:33.815Z,89.50
2018-07-02T21:11:06.966Z,88.80
2018-07-02T21:13:40.119Z,89.60
2018-07-02T21:16:13.176Z,92.40
2018-07-02T21:18:46.244Z,86.60
2018-07-02T21:21:19.305Z,89.40
2018-07-02T21:23:52.232Z,88.70
2018-07-02T21:26:25.192Z,83.70
2018-07-02T21:28:58.235Z,83.70
2018-07-02T21:31:31.346Z,87.70
2018-07-02T21:34:04.358Z,83.20
2018-07-02T21:36:37.372Z,85.30
2018-07-02T21:39:14.210Z,82.90
2018-07-02T21:41:47.376Z,79.30
2018-07-02T21:44:20.457Z,81.80
2018-07-02T21:46:53.568Z,85.20
2018-07-02T21:49:26.583Z,82.60
2018-07-02T21:51:59.547Z,84.70
2018-07-02T21:54:32.582Z,85.40
2018-07-02T21:57:05.572Z,85.60
2018-07-02T21:59:38.603Z,85.30
2018-07-02T22:02:12.476Z,84.00
2018-07-02T22:04:45.530Z,85.50
2018-07-02T22:07:18.554Z,86.20
2018-07-02T22:09:51.683Z,82.60
2018-07-02T22:12:24.791Z,81.30
2018-07-02T22:14:57.825Z,81.70
2018-07-02T22:17:31.108Z,80.70
2018-07-02T22:20:04.174Z,81.60
2018-07-02T22:22:37.340Z,83.30
2018-07-02T22:25:10.396Z,81.50
2018-07-02T22:27:43.463Z,80.80
2018-07-02T22:30:16.551Z,78.50
2018-07-02T22:32:49.491Z,82.70
2018-07-02T22:35:22.519Z,79.60
2018-07-02T22:37:55.729Z,74.20
2018-07-02T22:40:28.814Z,72.80
2018-07-02T22:43:01.927Z,71.40
2018-07-02T22:45:35.127Z,73.50
2018-07-02T22:48:08.162Z,74.30
2018-07-02T22:50:41.195Z,73.20
2018-07-02T22:53:14.274Z,73.40
2018-07-02T22:55:56.358Z,71.80
2018-07-02T22:58:29.520Z,74.30
2018-07-02T23:01:03.190Z,73.10
2018-07-02T23:03:36.230Z,71.60
2018-07-02T23:06:09.362Z,72.50
2018-07-02T23:08:42.457Z,74.30
2018-07-02T23:11:15.655Z,71.90
2018-07-02T23:13:48.658Z,69.00
2018-07-02T23:16:21.778Z,73.20
2018-07-02T23:18:54.831Z,74.50
2018-07-02T23:21:27.940Z,74.00
2018-07-02T23:24:00.943Z,72.70
2018-07-02T23:26:33.912Z,73.50
2018-07-02T23:29:07.015Z,68.20
2018-07-02T23:31:40.042Z,71.60
2018-07-02T23:34:13.129Z,66.20
2018-07-02T23:36:46.219Z,70.40
2018-07-02T23:39:19.259Z,70.30
2018-07-02T23:41:52.251Z,68.20
2018-07-02T23:44:25.266Z,68.10
2018-07-02T23:46:58.327Z,67.00
2018-07-02T23:49:31.382Z,64.60
2018-07-02T23:52:04.359Z,69.20
2018-07-02T23:54:37.368Z,68.90
2018-07-02T23:57:10.387Z,69.50
2018-07-02T23:59:43.392Z,68.90
